createdAt,value
2023-05-12T00:00:25.391Z,50.47
2023-05-12T00:01:25.600Z,51.17
2023-05-12T00:02:26.052Z,50.97
2023-05-12T00:03:26.033Z,50.57
2023-05-12T00:04:26.108Z,50.77
2023-05-12T00:05:26.260Z,50.57
2023-05-12T00:06:26.453Z,50.57
2023-05-12T00:07:26.638Z,50.40
2023-05-12T00:08:26.830Z,50.40
2023-05-12T00:09:27.009Z,50.27
2023-05-12T00:10:27.180Z,50.47
2023-05-12T00:11:27.383Z,50.49
2023-05-12T00:12:27.541Z,50.49
2023-05-12T00:13:27.735Z,50.60
2023-05-12T00:14:27.890Z,50.70
2023-05-12T00:15:28.067Z,50.99
2023-05-12T00:16:28.292Z,51.10
2023-05-12T00:17:28.429Z,50.70
2023-05-12T00:18:28.697Z,50.30
2023-05-12T00:19:28.730Z,50.90
2023-05-12T00:20:28.918Z,50.79
2023-05-12T00:21:29.071Z,50.30
2023-05-12T00:22:29.256Z,50.79
2023-05-12T00:23:29.437Z,50.20
2023-05-12T00:24:29.607Z,50.40
2023-05-12T00:25:29.824Z,50.79
2023-05-12T00:26:29.958Z,50.40
2023-05-12T00:27:30.130Z,50.60
2023-05-12T00:28:30.325Z,50.00
2023-05-12T00:29:30.468Z,50.70
2023-05-12T00:30:30.661Z,50.20
2023-05-12T00:31:30.844Z,50.30
2023-05-12T00:32:31.014Z,50.40
2023-05-12T00:33:31.174Z,49.92
2023-05-12T00:34:31.396Z,50.32
2023-05-12T00:35:31.535Z,50.70
2023-05-12T00:36:31.719Z,50.52
2023-05-12T00:37:31.920Z,50.72
2023-05-12T00:38:32.051Z,50.52
2023-05-12T00:39:32.241Z,50.72
2023-05-12T00:40:32.403Z,50.22
2023-05-12T00:41:32.573Z,50.82
2023-05-12T00:42:32.749Z,50.52
2023-05-12T00:43:32.922Z,50.42
2023-05-12T00:44:33.074Z,50.42
2023-05-12T00:45:33.306Z,50.32
2023-05-12T00:46:33.477Z,50.52
2023-05-12T00:47:33.643Z,50.72
2023-05-12T00:48:33.784Z,50.62
2023-05-12T00:49:33.961Z,50.52
2023-05-12T00:50:34.143Z,49.82
2023-05-12T00:51:34.342Z,50.42
2023-05-12T00:52:34.491Z,50.32
2023-05-12T00:53:47.669Z,50.42
2023-05-12T00:54:35.824Z,50.62
2023-05-12T00:55:35.017Z,50.32
2023-05-12T00:56:35.184Z,50.22
2023-05-12T00:57:35.356Z,50.42
2023-05-12T00:58:35.525Z,49.85
2023-05-12T00:59:35.716Z,50.04
2023-05-12T01:00:35.928Z,50.65
2023-05-12T01:01:36.321Z,50.15
2023-05-12T01:02:36.327Z,50.24
2023-05-12T01:03:36.461Z,50.45
2023-05-12T01:04:36.621Z,50.04
2023-05-12T01:05:36.813Z,50.45
2023-05-12T01:06:36.973Z,50.65
2023-05-12T01:07:37.141Z,50.24
2023-05-12T01:08:37.373Z,50.04
2023-05-12T01:09:37.543Z,50.24
2023-05-12T01:10:37.681Z,50.15
2023-05-12T01:11:37.867Z,50.15
2023-05-12T01:12:38.004Z,50.15
2023-05-12T01:13:38.195Z,50.24
2023-05-12T01:14:38.390Z,49.65
2023-05-12T01:15:38.542Z,50.04
2023-05-12T01:16:38.710Z,49.95
2023-05-12T01:17:39.170Z,49.44
2023-05-12T01:18:39.125Z,49.95
2023-05-12T01:19:39.245Z,49.95
2023-05-12T01:20:39.426Z,50.24
2023-05-12T01:21:39.619Z,49.74
2023-05-12T01:22:39.783Z,49.74
2023-05-12T01:23:39.999Z,49.74
2023-05-12T01:24:40.109Z,49.55
2023-05-12T01:25:40.295Z,49.85
2023-05-12T01:26:40.463Z,49.95
2023-05-12T01:27:40.649Z,50.15
2023-05-12T01:28:40.794Z,49.55
2023-05-12T01:29:40.985Z,49.95
2023-05-12T01:30:41.158Z,49.95
2023-05-12T01:31:41.499Z,50.15
2023-05-12T01:32:41.524Z,50.15
2023-05-12T01:33:41.656Z,49.85
2023-05-12T01:34:41.807Z,49.44
2023-05-12T01:35:42.000Z,49.65
2023-05-12T01:36:42.197Z,49.85
2023-05-12T01:37:42.346Z,49.67
2023-05-12T01:38:42.517Z,49.85
2023-05-12T01:39:42.714Z,49.85
2023-05-12T01:40:42.895Z,49.85
2023-05-12T01:41:43.091Z,49.95
2023-05-12T01:42:43.217Z,49.77
2023-05-12T01:43:43.442Z,49.97
2023-05-12T01:44:43.593Z,49.97
2023-05-12T01:45:43.740Z,49.27
2023-05-12T01:46:43.943Z,49.67
2023-05-12T01:47:44.166Z,49.67
2023-05-12T01:48:44.268Z,49.17
2023-05-12T01:49:44.466Z,49.67
2023-05-12T01:50:44.607Z,49.77
2023-05-12T01:51:44.827Z,49.97
2023-05-12T01:52:44.961Z,49.77
2023-05-12T01:53:45.168Z,49.57
2023-05-12T01:54:45.320Z,49.87
2023-05-12T01:55:45.485Z,49.47
2023-05-12T01:56:45.685Z,49.37
2023-05-12T01:57:45.834Z,49.77
2023-05-12T01:58:46.080Z,49.77
2023-05-12T01:59:46.208Z,49.87
2023-05-12T02:00:46.376Z,49.47
2023-05-12T02:01:46.583Z,49.77
2023-05-12T02:02:46.774Z,49.47
2023-05-12T02:03:46.931Z,49.47
2023-05-12T02:04:47.042Z,49.77
2023-05-12T02:05:47.230Z,49.37
2023-05-12T02:06:47.420Z,49.57
2023-05-12T02:07:47.546Z,49.77
2023-05-12T02:08:47.734Z,49.79
2023-05-12T02:09:47.920Z,49.69
2023-05-12T02:10:48.109Z,49.77
2023-05-12T02:11:48.275Z,49.49
2023-05-12T02:12:48.467Z,49.40
2023-05-12T02:13:48.646Z,49.27
2023-05-12T02:14:48.787Z,49.59
2023-05-12T02:15:48.988Z,49.49
2023-05-12T02:16:49.289Z,49.69
2023-05-12T02:17:49.370Z,49.69
2023-05-12T02:18:49.569Z,49.40
2023-05-12T02:19:49.674Z,49.29
2023-05-12T02:20:49.897Z,49.79
2023-05-12T02:21:50.044Z,49.69
2023-05-12T02:22:50.226Z,49.79
2023-05-12T02:23:50.410Z,49.99
2023-05-12T02:24:50.575Z,49.59
2023-05-12T02:25:50.764Z,49.79
2023-05-12T02:26:50.936Z,49.59
2023-05-12T02:27:51.139Z,49.59
2023-05-12T02:28:51.274Z,49.90
2023-05-12T02:29:51.446Z,49.29
2023-05-12T02:30:51.633Z,49.29
2023-05-12T02:31:51.859Z,49.90
2023-05-12T02:32:52.102Z,49.69
2023-05-12T02:33:52.156Z,49.49
2023-05-12T02:34:52.365Z,49.90
2023-05-12T02:35:52.539Z,49.90
2023-05-12T02:36:52.717Z,49.79
2023-05-12T02:37:52.892Z,49.62
2023-05-12T02:38:53.094Z,49.59
2023-05-12T02:39:53.223Z,50.02
2023-05-12T02:40:53.411Z,49.22
2023-05-12T02:41:53.590Z,49.52
2023-05-12T02:42:53.802Z,50.02
2023-05-12T02:43:54.015Z,49.91
2023-05-12T02:44:54.142Z,49.82
2023-05-12T02:45:54.341Z,50.02
2023-05-12T02:46:54.492Z,49.91
2023-05-12T02:47:54.669Z,50.12
2023-05-12T02:48:54.843Z,50.02
2023-05-12T02:49:55.022Z,50.12
2023-05-12T02:50:55.202Z,49.91
2023-05-12T02:51:55.378Z,49.72
2023-05-12T02:52:55.536Z,49.52
2023-05-12T02:53:55.734Z,49.72
2023-05-12T02:54:55.931Z,49.82
2023-05-12T02:55:56.107Z,50.02
2023-05-12T02:56:56.238Z,49.62
2023-05-12T02:57:56.414Z,50.02
2023-05-12T02:58:56.599Z,50.12
2023-05-12T02:59:56.797Z,49.82
2023-05-12T03:01:09.491Z,50.02
2023-05-12T03:01:58.124Z,49.82
2023-05-12T03:02:57.332Z,49.72
2023-05-12T03:03:57.447Z,50.12
2023-05-12T03:04:57.672Z,49.82
2023-05-12T03:05:57.803Z,50.12
2023-05-12T03:06:57.993Z,50.12
2023-05-12T03:07:58.144Z,50.32
2023-05-12T03:08:58.338Z,50.12
2023-05-12T03:09:58.558Z,49.91
2023-05-12T03:10:58.718Z,50.02
2023-05-12T03:11:58.881Z,49.72
2023-05-12T03:12:59.069Z,49.52
2023-05-12T03:13:59.284Z,50.12
2023-05-12T03:14:59.438Z,49.82
2023-05-12T03:15:59.591Z,50.02
2023-05-12T03:16:59.824Z,50.02
2023-05-12T03:18:00.013Z,50.02
2023-05-12T03:19:00.267Z,50.12
2023-05-12T03:20:00.357Z,50.04
2023-05-12T03:21:00.492Z,50.02
2023-05-12T03:22:00.665Z,49.82
2023-05-12T03:23:00.852Z,49.91
2023-05-12T03:24:01.057Z,49.82
2023-05-12T03:25:01.248Z,50.12
2023-05-12T03:26:01.389Z,50.02
2023-05-12T03:27:01.583Z,49.82
2023-05-12T03:28:01.745Z,49.41
2023-05-12T03:29:01.958Z,49.82
2023-05-12T03:30:02.105Z,49.62
2023-05-12T03:31:02.251Z,50.02
2023-05-12T03:32:02.415Z,49.54
2023-05-12T03:33:02.644Z,50.22
2023-05-12T03:34:02.738Z,49.91
2023-05-12T03:35:02.922Z,50.22
2023-05-12T03:36:03.091Z,49.91
2023-05-12T03:37:03.250Z,49.82
2023-05-12T03:38:03.422Z,49.41
2023-05-12T03:39:03.605Z,50.02
2023-05-12T03:40:03.785Z,49.91
2023-05-12T03:41:03.963Z,50.02
2023-05-12T03:42:04.122Z,49.62
2023-05-12T03:43:04.305Z,50.02
2023-05-12T03:44:04.472Z,49.62
2023-05-12T03:45:04.657Z,50.22
2023-05-12T03:46:04.880Z,49.82
2023-05-12T03:47:05.076Z,49.91
2023-05-12T03:48:05.179Z,50.02
2023-05-12T03:49:05.328Z,49.91
2023-05-12T03:50:05.507Z,49.91
2023-05-12T03:51:05.697Z,49.72
2023-05-12T03:52:05.861Z,49.82
2023-05-12T03:53:06.065Z,49.62
2023-05-12T03:54:06.222Z,49.72
2023-05-12T03:55:06.411Z,49.41
2023-05-12T03:56:06.553Z,49.74
2023-05-12T03:57:06.725Z,49.52
2023-05-12T03:58:06.886Z,49.82
2023-05-12T03:59:07.043Z,49.72
2023-05-12T04:00:07.284Z,49.94
2023-05-12T04:01:07.418Z,49.91
2023-05-12T04:02:07.786Z,49.74
2023-05-12T04:03:07.858Z,49.74
2023-05-12T04:04:07.974Z,49.74
2023-05-12T04:05:08.179Z,49.94
2023-05-12T04:06:08.292Z,50.04
2023-05-12T04:07:08.463Z,49.64
2023-05-12T04:08:08.634Z,49.74
2023-05-12T04:09:08.811Z,49.74
2023-05-12T04:10:09.057Z,50.04
2023-05-12T04:11:09.182Z,49.74
2023-05-12T04:12:09.344Z,49.84
2023-05-12T04:13:09.536Z,49.94
2023-05-12T04:14:09.703Z,50.04
2023-05-12T04:15:09.912Z,50.14
2023-05-12T04:16:10.137Z,49.64
2023-05-12T04:17:10.238Z,49.84
2023-05-12T04:18:10.447Z,50.24
2023-05-12T04:19:10.657Z,50.14
2023-05-12T04:20:10.751Z,50.34
2023-05-12T04:21:10.937Z,50.54
2023-05-12T04:22:11.093Z,50.14
2023-05-12T04:23:11.261Z,49.84
2023-05-12T04:24:11.477Z,50.24
2023-05-12T04:25:11.654Z,50.74
2023-05-12T04:26:11.842Z,50.54
2023-05-12T04:27:12.016Z,50.04
2023-05-12T04:28:12.438Z,50.04
2023-05-12T04:29:12.393Z,50.44
2023-05-12T04:30:12.577Z,50.54
2023-05-12T04:31:12.761Z,50.34
2023-05-12T04:32:13.005Z,50.44
2023-05-12T04:33:13.118Z,50.34
2023-05-12T04:34:13.331Z,50.64
2023-05-12T04:35:13.476Z,50.16
2023-05-12T04:36:13.666Z,50.54
2023-05-12T04:37:13.827Z,50.64
2023-05-12T04:38:13.971Z,50.46
2023-05-12T04:39:14.209Z,50.44
2023-05-12T04:40:14.329Z,50.26
2023-05-12T04:41:14.521Z,50.64
2023-05-12T04:42:14.670Z,50.57
2023-05-12T04:44:15.071Z,50.67
2023-05-12T04:45:15.230Z,50.37
2023-05-12T04:46:15.458Z,50.37
2023-05-12T04:47:15.595Z,50.16
2023-05-12T04:48:15.757Z,50.67
2023-05-12T04:49:15.969Z,50.37
2023-05-12T04:50:16.138Z,50.76
2023-05-12T04:51:16.344Z,50.46
2023-05-12T04:52:16.516Z,50.67
2023-05-12T04:53:16.705Z,50.67
2023-05-12T04:54:16.880Z,50.76
2023-05-12T04:55:17.103Z,50.26
2023-05-12T04:56:17.241Z,50.67
2023-05-12T04:57:17.392Z,50.16
2023-05-12T04:58:17.566Z,50.57
2023-05-12T04:59:17.768Z,50.96
2023-05-12T05:00:17.913Z,50.87
2023-05-12T05:01:18.146Z,50.46
2023-05-12T05:02:18.360Z,50.96
2023-05-12T05:03:18.498Z,50.96
2023-05-12T05:04:18.638Z,50.87
2023-05-12T05:05:19.232Z,50.67
2023-05-12T05:06:18.978Z,50.87
2023-05-12T05:07:19.134Z,51.07
2023-05-12T05:08:19.285Z,50.57
2023-05-12T05:09:19.468Z,50.67
2023-05-12T05:10:19.658Z,50.57
2023-05-12T05:11:19.862Z,50.57
2023-05-12T05:12:20.004Z,50.46
2023-05-12T05:13:20.196Z,50.67
2023-05-12T05:14:20.360Z,50.76
2023-05-12T05:15:20.717Z,50.87
2023-05-12T05:16:20.758Z,50.76
2023-05-12T05:17:20.898Z,50.46
2023-05-12T05:18:23.867Z,50.76
2023-05-12T05:19:31.355Z,50.46
2023-05-12T05:20:27.906Z,50.46
2023-05-12T05:21:22.574Z,50.57
2023-05-12T05:22:21.706Z,50.76
2023-05-12T05:23:21.894Z,50.37
2023-05-12T05:24:22.050Z,50.57
2023-05-12T05:25:22.253Z,50.67
2023-05-12T05:26:22.415Z,50.96
2023-05-12T05:27:22.574Z,50.69
2023-05-12T05:28:22.735Z,50.76
2023-05-12T05:29:22.909Z,50.76
2023-05-12T05:30:23.071Z,50.37
2023-05-12T05:31:23.362Z,50.79
2023-05-12T05:32:23.424Z,50.69
2023-05-12T05:33:23.582Z,50.76
2023-05-12T05:34:23.788Z,50.76
2023-05-12T05:35:23.934Z,50.67
2023-05-12T05:36:24.117Z,50.87
2023-05-12T05:37:24.285Z,50.67
2023-05-12T05:38:24.433Z,50.87
2023-05-12T05:39:24.600Z,50.37
2023-05-12T05:40:24.756Z,49.96
2023-05-12T05:41:24.961Z,49.87
2023-05-12T05:42:25.075Z,50.67
2023-05-12T05:43:25.333Z,50.87
2023-05-12T05:44:25.442Z,50.87
2023-05-12T05:45:27.641Z,51.17
2023-05-12T05:46:25.879Z,50.67
2023-05-12T05:47:25.971Z,50.16
2023-05-12T05:48:26.136Z,50.57
2023-05-12T05:49:26.320Z,50.37
2023-05-12T05:50:26.494Z,50.26
2023-05-12T05:51:26.709Z,50.26
2023-05-12T05:52:26.843Z,50.16
2023-05-12T05:53:27.761Z,50.07
2023-05-12T05:54:27.204Z,50.37
2023-05-12T05:55:27.360Z,51.07
2023-05-12T05:56:27.561Z,50.46
2023-05-12T05:57:27.670Z,50.67
2023-05-12T05:58:27.848Z,50.87
2023-05-12T05:59:28.024Z,50.26
2023-05-12T06:00:28.173Z,50.37
2023-05-12T06:01:28.351Z,50.37
2023-05-12T06:02:28.634Z,50.57
2023-05-12T06:03:28.768Z,49.87
2023-05-12T06:04:28.947Z,50.24
2023-05-12T06:05:29.038Z,50.64
2023-05-12T06:06:29.224Z,50.54
2023-05-12T06:07:29.401Z,50.34
2023-05-12T06:08:29.550Z,50.14
2023-05-12T06:09:29.759Z,49.84
2023-05-12T06:10:29.932Z,50.44
2023-05-12T06:11:30.103Z,49.94
2023-05-12T06:12:30.237Z,50.24
2023-05-12T06:13:30.396Z,49.94
2023-05-12T06:14:30.556Z,49.64
2023-05-12T06:15:30.731Z,50.14
2023-05-12T06:16:30.985Z,49.64
2023-05-12T06:17:32.688Z,49.72
2023-05-12T06:18:31.307Z,49.91
2023-05-12T06:19:31.444Z,50.32
2023-05-12T06:20:31.596Z,49.62
2023-05-12T06:21:31.797Z,49.91
2023-05-12T06:22:31.948Z,50.02
2023-05-12T06:23:32.098Z,49.02
2023-05-12T06:24:32.261Z,50.52
2023-05-12T06:25:32.462Z,49.32
2023-05-12T06:26:32.646Z,49.62
2023-05-12T06:27:32.793Z,49.22
2023-05-12T06:28:32.965Z,49.79
2023-05-12T06:29:33.169Z,49.90
2023-05-12T06:30:33.320Z,49.90
2023-05-12T06:31:33.555Z,49.40
2023-05-12T06:32:33.745Z,49.69
2023-05-12T06:33:33.892Z,49.49
2023-05-12T06:34:34.096Z,49.90
2023-05-12T06:35:34.243Z,49.09
2023-05-12T06:36:34.445Z,49.49
2023-05-12T06:37:34.576Z,49.79
2023-05-12T06:38:34.723Z,49.57
2023-05-12T06:39:34.876Z,49.17
2023-05-12T06:40:35.037Z,49.07
2023-05-12T06:41:35.232Z,49.27
2023-05-12T06:42:35.397Z,48.77
2023-05-12T06:43:35.570Z,48.27
2023-05-12T06:44:35.727Z,49.27
2023-05-12T06:45:35.898Z,49.67
2023-05-12T06:46:36.168Z,49.55
2023-05-12T06:47:36.265Z,50.07
2023-05-12T06:48:36.418Z,49.44
2023-05-12T06:49:36.581Z,50.15
2023-05-12T06:50:36.739Z,49.95
2023-05-12T06:51:36.945Z,49.95
2023-05-12T06:52:37.053Z,49.65
2023-05-12T06:53:37.209Z,49.74
2023-05-12T06:54:37.410Z,49.05
2023-05-12T06:55:37.571Z,49.74
2023-05-12T06:56:37.767Z,49.22
2023-05-12T06:57:37.927Z,49.32
2023-05-12T06:58:38.100Z,49.12
2023-05-12T06:59:38.252Z,49.22
2023-05-12T07:00:38.422Z,49.12
2023-05-12T07:01:38.667Z,48.72
2023-05-12T07:02:38.789Z,48.93
2023-05-12T07:03:38.974Z,48.93
2023-05-12T07:04:39.120Z,49.10
2023-05-12T07:05:39.321Z,49.10
2023-05-12T07:06:39.484Z,48.90
2023-05-12T07:07:39.621Z,48.80
2023-05-12T07:08:39.797Z,48.70
2023-05-12T07:09:39.939Z,48.50
2023-05-12T07:10:40.136Z,48.30
2023-05-12T07:11:40.302Z,48.70
2023-05-12T07:12:40.452Z,48.08
2023-05-12T07:13:40.615Z,48.08
2023-05-12T07:14:40.780Z,47.88
2023-05-12T07:15:40.983Z,48.28
2023-05-12T07:16:41.155Z,49.57
2023-05-12T07:17:41.383Z,49.87
2023-05-12T07:18:41.549Z,48.78
2023-05-12T07:19:41.686Z,48.28
2023-05-12T07:20:41.857Z,48.55
2023-05-12T07:21:42.029Z,46.96
2023-05-12T07:22:42.199Z,46.96
2023-05-12T07:23:42.362Z,47.16
2023-05-12T07:24:42.533Z,46.14
2023-05-12T07:25:42.758Z,46.94
2023-05-12T07:26:42.909Z,47.53
2023-05-12T07:27:43.059Z,47.24
2023-05-12T07:28:43.225Z,47.03
2023-05-12T07:29:43.393Z,46.84
2023-05-12T07:30:43.559Z,47.31
2023-05-12T07:31:43.779Z,46.72
2023-05-12T07:32:43.963Z,47.11
2023-05-12T07:33:44.075Z,45.72
2023-05-12T07:34:44.246Z,45.00
2023-05-12T07:35:44.412Z,46.59
2023-05-12T07:36:44.612Z,46.09
2023-05-12T07:37:44.740Z,45.79
2023-05-12T07:38:45.275Z,46.39
2023-05-12T07:39:45.114Z,46.69
2023-05-12T07:40:45.273Z,45.28
2023-05-12T07:41:45.475Z,46.47
2023-05-12T07:42:45.641Z,44.48
2023-05-12T07:43:45.811Z,44.58
2023-05-12T07:44:46.029Z,44.78
2023-05-12T07:45:46.159Z,44.68
2023-05-12T07:46:46.340Z,44.08
2023-05-12T07:47:46.500Z,44.26
2023-05-12T07:48:46.676Z,44.26
2023-05-12T07:49:46.876Z,44.36
2023-05-12T07:50:47.039Z,44.46
2023-05-12T07:51:47.208Z,44.26
2023-05-12T07:52:47.366Z,43.24
2023-05-12T07:53:47.528Z,43.64
2023-05-12T07:54:47.713Z,43.05
2023-05-12T07:55:47.864Z,44.14
2023-05-12T07:56:48.183Z,43.74
2023-05-12T07:57:48.234Z,44.14
2023-05-12T07:58:48.404Z,43.44
2023-05-12T07:59:48.585Z,43.94
2023-05-12T08:00:48.746Z,44.81
2023-05-12T08:01:49.024Z,43.72
2023-05-12T08:02:49.264Z,43.92
2023-05-12T08:03:49.325Z,43.13
2023-05-12T08:04:49.474Z,42.93
2023-05-12T08:05:49.628Z,42.93
2023-05-12T08:06:49.793Z,42.72
2023-05-12T08:07:49.959Z,42.80
2023-05-12T08:08:50.136Z,42.80
2023-05-12T08:09:50.309Z,42.31
2023-05-12T08:10:50.510Z,41.61
2023-05-12T08:11:51.818Z,41.71
2023-05-12T08:12:50.856Z,42.41
2023-05-12T08:13:51.045Z,42.01
2023-05-12T08:14:51.203Z,42.09
2023-05-12T08:15:51.387Z,42.99
2023-05-12T08:16:51.579Z,42.58
2023-05-12T08:17:51.726Z,42.49
2023-05-12T08:18:51.983Z,42.09
2023-05-12T08:19:52.060Z,41.20
2023-05-12T08:20:52.240Z,42.49
2023-05-12T08:21:52.414Z,42.17
2023-05-12T08:22:52.582Z,41.77
2023-05-12T08:23:52.794Z,41.77
2023-05-12T08:24:52.899Z,40.98
2023-05-12T08:25:53.065Z,39.89
2023-05-12T08:26:53.271Z,40.78
2023-05-12T08:27:53.415Z,40.38
2023-05-12T08:28:53.654Z,41.16
2023-05-12T08:29:53.773Z,40.26
2023-05-12T08:30:53.980Z,40.26
2023-05-12T08:31:54.145Z,42.25
2023-05-12T08:32:54.350Z,41.85
2023-05-12T08:34:55.648Z,41.36
2023-05-12T08:35:54.855Z,40.76
2023-05-12T08:36:55.016Z,40.94
2023-05-12T08:37:55.174Z,42.33
2023-05-12T08:38:55.387Z,41.83
2023-05-12T08:39:55.565Z,41.04
2023-05-12T08:40:55.760Z,42.13
2023-05-12T08:41:55.932Z,41.44
2023-05-12T08:42:56.167Z,42.41
2023-05-12T08:43:56.293Z,41.71
2023-05-12T08:44:56.469Z,40.72
2023-05-12T08:45:56.627Z,41.02
2023-05-12T08:46:56.881Z,40.82
2023-05-12T08:47:57.023Z,40.72
2023-05-12T08:48:57.189Z,41.41
2023-05-12T08:49:57.323Z,40.72
2023-05-12T08:50:57.517Z,40.90
2023-05-12T08:51:58.568Z,40.31
2023-05-12T08:52:57.850Z,40.20
2023-05-12T08:53:58.049Z,39.81
2023-05-12T08:54:59.044Z,39.31
2023-05-12T08:57:08.866Z,38.92
2023-05-12T08:57:58.726Z,39.20
2023-05-12T08:58:58.944Z,39.20
2023-05-12T08:59:59.075Z,40.58
2023-05-12T09:00:59.300Z,39.69
2023-05-12T09:01:59.475Z,39.40
2023-05-12T09:02:59.666Z,39.40
2023-05-12T09:03:59.830Z,39.00
2023-05-12T09:05:00.006Z,38.80
2023-05-12T09:06:00.142Z,38.51
2023-05-12T09:07:00.361Z,38.29
2023-05-12T09:08:00.531Z,38.59
2023-05-12T09:09:00.703Z,37.89
2023-05-12T09:10:00.884Z,37.70
2023-05-12T09:11:01.022Z,36.90
2023-05-12T09:12:01.201Z,37.60
2023-05-12T09:13:01.384Z,38.29
2023-05-12T09:14:01.647Z,37.40
2023-05-12T09:15:01.724Z,37.38
2023-05-12T09:16:01.943Z,37.28
2023-05-12T09:17:02.063Z,38.17
2023-05-12T09:18:02.247Z,37.18
2023-05-12T09:19:03.640Z,38.37
2023-05-12T09:20:02.573Z,37.28
2023-05-12T09:21:02.723Z,37.18
2023-05-12T09:22:02.878Z,37.58
2023-05-12T09:23:03.038Z,38.25
2023-05-12T09:24:03.227Z,36.87
2023-05-12T09:25:03.433Z,36.77
2023-05-12T09:26:03.577Z,38.06
2023-05-12T09:27:03.789Z,38.15
2023-05-12T09:28:03.904Z,37.56
2023-05-12T09:29:04.073Z,37.16
2023-05-12T09:30:04.269Z,37.34
2023-05-12T09:31:04.440Z,38.43
2023-05-12T09:32:04.637Z,37.84
2023-05-12T09:33:04.770Z,37.84
2023-05-12T09:34:04.959Z,37.45
2023-05-12T09:35:05.080Z,37.24
2023-05-12T09:36:05.267Z,37.52
2023-05-12T09:37:05.459Z,37.52
2023-05-12T09:38:05.594Z,37.43
2023-05-12T09:39:05.817Z,37.23
2023-05-12T09:40:06.024Z,37.52
2023-05-12T09:41:06.131Z,36.93
2023-05-12T09:42:06.291Z,36.91
2023-05-12T09:43:06.484Z,37.01
2023-05-12T09:44:06.652Z,36.61
2023-05-12T09:45:06.791Z,36.71
2023-05-12T09:46:07.052Z,36.12
2023-05-12T09:47:07.122Z,36.60
2023-05-12T09:48:07.318Z,36.70
2023-05-12T09:49:07.499Z,36.30
2023-05-12T09:50:07.642Z,36.60
2023-05-12T09:51:07.839Z,36.19
2023-05-12T09:52:07.984Z,36.09
2023-05-12T09:53:08.147Z,35.99
2023-05-12T09:54:08.326Z,36.09
2023-05-12T09:55:08.479Z,36.09
2023-05-12T09:56:08.626Z,35.88
2023-05-12T09:57:08.826Z,35.97
2023-05-12T09:58:08.999Z,36.17
2023-05-12T09:59:09.219Z,35.77
2023-05-12T10:00:20.183Z,35.66
2023-05-12T10:01:21.442Z,35.46
2023-05-12T10:02:10.773Z,35.66
2023-05-12T10:03:09.954Z,35.46
2023-05-12T10:04:10.115Z,35.44
2023-05-12T10:05:10.354Z,35.35
2023-05-12T10:06:10.359Z,35.25
2023-05-12T10:07:10.543Z,35.15
2023-05-12T10:08:10.730Z,35.13
2023-05-12T10:09:10.945Z,34.94
2023-05-12T10:10:11.102Z,34.84
2023-05-12T10:11:11.284Z,34.94
2023-05-12T10:12:11.474Z,34.72
2023-05-12T10:13:11.663Z,34.82
2023-05-12T10:14:11.859Z,34.72
2023-05-12T10:15:12.020Z,34.63
2023-05-12T10:16:12.252Z,34.70
2023-05-12T10:17:12.503Z,34.61
2023-05-12T10:18:12.570Z,34.70
2023-05-12T10:19:12.749Z,34.51
2023-05-12T10:20:12.888Z,34.30
2023-05-12T10:21:13.055Z,34.30
2023-05-12T10:22:13.212Z,34.30
2023-05-12T10:23:13.384Z,34.87
2023-05-12T10:24:13.560Z,34.08
2023-05-12T10:25:13.680Z,33.97
2023-05-12T10:26:13.869Z,33.65
2023-05-12T10:27:14.011Z,33.64
2023-05-12T10:28:14.165Z,33.14
2023-05-12T10:29:14.377Z,33.04
2023-05-12T10:30:14.551Z,33.04
2023-05-12T10:31:14.742Z,32.84
2023-05-12T10:32:14.889Z,32.84
2023-05-12T10:33:15.083Z,32.94
2023-05-12T10:34:15.266Z,32.82
2023-05-12T10:35:15.432Z,32.73
2023-05-12T10:36:15.566Z,32.73
2023-05-12T10:37:15.762Z,32.73
2023-05-12T10:38:15.959Z,32.73
2023-05-12T10:39:16.159Z,32.73
2023-05-12T10:40:16.372Z,32.92
2023-05-12T10:41:16.488Z,32.73
2023-05-12T10:42:16.645Z,32.73
2023-05-12T10:43:16.853Z,32.73
2023-05-12T10:44:16.999Z,32.73
2023-05-12T10:45:17.231Z,32.63
2023-05-12T10:46:17.418Z,32.63
2023-05-12T10:47:17.538Z,32.63
2023-05-12T10:48:17.732Z,32.63
2023-05-12T10:49:17.922Z,32.82
2023-05-12T10:50:18.048Z,32.82
2023-05-12T10:51:18.215Z,32.73
2023-05-12T10:52:18.370Z,32.73
2023-05-12T10:53:18.567Z,32.74
2023-05-12T10:54:18.743Z,32.84
2023-05-12T10:55:18.976Z,32.84
2023-05-12T10:56:19.328Z,32.82
2023-05-12T10:57:19.489Z,32.73
2023-05-12T10:58:19.815Z,32.63
2023-05-12T10:59:20.389Z,32.63
2023-05-12T11:00:20.376Z,32.61
2023-05-12T11:01:20.354Z,32.61
2023-05-12T11:02:20.935Z,32.61
2023-05-12T11:03:21.012Z,32.51
2023-05-12T11:04:24.252Z,32.51
2023-05-12T11:05:21.985Z,32.42
2023-05-12T11:06:21.317Z,32.40
2023-05-12T11:07:22.117Z,32.40
2023-05-12T11:08:21.656Z,32.40
2023-05-12T11:09:21.833Z,32.40
2023-05-12T11:10:22.084Z,32.30
2023-05-12T11:11:22.460Z,32.29
2023-05-12T11:12:21.856Z,32.19
2023-05-12T11:13:21.984Z,32.19
2023-05-12T11:14:22.192Z,32.19
2023-05-12T11:15:22.859Z,32.09
2023-05-12T11:16:22.555Z,31.99
2023-05-12T11:17:22.799Z,32.09
2023-05-12T11:18:22.902Z,32.30
2023-05-12T11:19:23.048Z,32.30
2023-05-12T11:20:23.260Z,32.19
2023-05-12T11:21:23.400Z,32.09
2023-05-12T11:22:23.547Z,32.19
2023-05-12T11:23:24.235Z,32.19
2023-05-12T11:24:23.898Z,32.09
2023-05-12T11:25:24.258Z,31.98
2023-05-12T11:26:24.236Z,31.99
2023-05-12T11:27:24.469Z,32.19
2023-05-12T11:28:24.603Z,32.29
2023-05-12T11:29:24.778Z,32.40
2023-05-12T11:30:24.930Z,32.40
2023-05-12T11:31:25.105Z,32.40
2023-05-12T11:32:25.273Z,32.40
2023-05-12T11:33:25.438Z,32.40
2023-05-12T11:34:25.615Z,32.50
2023-05-12T11:35:25.753Z,32.50
2023-05-12T11:36:25.912Z,32.61
2023-05-12T11:37:26.087Z,32.71
2023-05-12T11:38:26.261Z,32.81
2023-05-12T11:39:26.456Z,32.90
2023-05-12T11:40:26.631Z,32.71
2023-05-12T11:41:26.803Z,32.61
2023-05-12T11:42:26.984Z,32.50
2023-05-12T11:43:27.149Z,32.50
2023-05-12T11:44:27.301Z,32.40
2023-05-12T11:45:27.502Z,32.29
2023-05-12T11:46:27.729Z,32.29
2023-05-12T11:47:27.883Z,32.19
2023-05-12T11:48:28.030Z,32.19
2023-05-12T11:49:28.191Z,32.07
2023-05-12T11:50:28.353Z,32.07
2023-05-12T11:51:28.531Z,32.07
2023-05-12T11:52:28.707Z,31.98
2023-05-12T11:53:28.847Z,32.07
2023-05-12T11:54:29.012Z,32.07
2023-05-12T11:55:29.170Z,32.17
2023-05-12T11:56:29.356Z,32.17
2023-05-12T11:57:29.597Z,32.07
2023-05-12T11:58:29.728Z,32.07
2023-05-12T11:59:29.895Z,31.98
2023-05-12T12:00:30.073Z,31.98
2023-05-12T12:01:30.236Z,31.98
2023-05-12T12:02:30.485Z,31.87
2023-05-12T12:03:30.625Z,31.87
2023-05-12T12:04:30.861Z,31.77
2023-05-12T12:05:30.921Z,31.67
2023-05-12T12:06:31.126Z,31.65
2023-05-12T12:07:31.275Z,31.65
2023-05-12T12:08:31.425Z,31.65
2023-05-12T12:09:31.556Z,31.56
2023-05-12T12:10:31.756Z,31.46
2023-05-12T12:11:31.909Z,31.45
2023-05-12T12:12:32.101Z,31.35
2023-05-12T12:13:32.320Z,31.35
2023-05-12T12:14:32.442Z,31.35
2023-05-12T12:15:32.597Z,31.25
2023-05-12T12:16:32.918Z,31.23
2023-05-12T12:17:33.102Z,31.13
2023-05-12T12:18:33.142Z,31.35
2023-05-12T12:19:33.283Z,31.13
2023-05-12T12:20:33.495Z,31.13
2023-05-12T12:21:33.641Z,31.04
2023-05-12T12:22:33.824Z,31.04
2023-05-12T12:23:47.317Z,30.93
2023-05-12T12:24:35.195Z,30.93
2023-05-12T12:25:34.357Z,30.93
2023-05-12T12:26:34.540Z,30.83
2023-05-12T12:27:34.756Z,30.05
2023-05-12T12:28:34.923Z,30.44
2023-05-12T12:29:35.119Z,30.73
2023-05-12T12:30:35.238Z,30.83
2023-05-12T12:31:35.454Z,30.93
2023-05-12T12:32:35.620Z,31.22
2023-05-12T12:33:35.763Z,31.02
2023-05-12T12:34:35.926Z,31.13
2023-05-12T12:35:36.075Z,31.13
2023-05-12T12:36:36.288Z,31.33
2023-05-12T12:37:36.463Z,31.22
2023-05-12T12:38:36.604Z,31.04
2023-05-12T12:39:36.777Z,31.04
2023-05-12T12:40:36.966Z,30.94
2023-05-12T12:41:37.118Z,30.93
2023-05-12T12:42:37.319Z,30.83
2023-05-12T12:43:37.431Z,30.83
2023-05-12T12:44:37.622Z,30.83
2023-05-12T12:45:37.769Z,30.71
2023-05-12T12:46:37.994Z,30.42
2023-05-12T12:47:38.185Z,30.52
2023-05-12T12:48:38.298Z,30.32
2023-05-12T12:49:38.464Z,30.42
2023-05-12T12:50:38.626Z,30.42
2023-05-12T12:51:45.660Z,30.42
2023-05-12T12:52:39.960Z,30.22
2023-05-12T12:53:39.096Z,30.31
2023-05-12T12:54:39.272Z,30.51
2023-05-12T12:55:39.426Z,30.51
2023-05-12T12:56:39.631Z,30.41
2023-05-12T12:57:39.805Z,30.31